Time;durP1;ratioP1;P1;durP2;ratioP2;P2;SDS_P1;SDS_P2;PMS_P1;PMS_P2;Temp;Humidity;BMP_temperature;BMP_pressure;BME280_temperature;BME280_humidity;BME280_pressure;Samples;Min_cycle;Max_cycle;Signal;HPM_P1;HPM_P2
2021/05/31 00:00:44;;;;;;;1.27;0.50;;;22.00;51.50;;;;;;6317363;28;20020;-66
2021/05/31 00:03:44;;;;;;;0.50;0.40;;;22.00;51.50;;;;;;6317297;28;20039;-67
2021/05/31 00:07:14;;;;;;;0.80;0.47;;;22.00;51.40;;;;;;6317192;28;20028;-67
2021/05/31 00:10:15;;;;;;;0.50;0.40;;;22.00;51.50;;;;;;6316936;28;20305;-67
2021/05/31 00:13:17;;;;;;;0.40;0.40;;;22.00;51.50;;;;;;6316994;28;20476;-67
2021/05/31 00:16:18;;;;;;;1.02;0.45;;;22.00;51.50;;;;;;6317039;28;20122;-67
2021/05/31 00:19:20;;;;;;;0.98;0.50;;;22.00;51.50;;;;;;6317017;28;20013;-67
2021/05/31 00:22:22;;;;;;;0.40;0.40;;;22.00;51.40;;;;;;6316952;28;20707;-67
2021/05/31 00:25:24;;;;;;;0.77;0.40;;;22.00;51.40;;;;;;6316741;28;20139;-67
2021/05/31 00:28:25;;;;;;;1.05;0.50;;;22.00;51.50;;;;;;6317021;28;20024;-67
2021/05/31 00:31:26;;;;;;;0.40;0.40;;;22.00;51.50;;;;;;6316603;28;20035;-67
2021/05/31 00:34:27;;;;;;;0.70;0.47;;;22.00;51.40;;;;;;6317051;28;20104;-67
2021/05/31 00:37:27;;;;;;;0.50;0.40;;;22.00;51.40;;;;;;6331466;28;20430;-66
2021/05/31 00:40:28;;;;;;;0.40;0.30;;;22.00;51.40;;;;;;6341591;28;20068;-66
2021/05/31 00:43:33;;;;;;;0.65;0.50;;;22.00;51.40;;;;;;6341547;28;20098;-67
2021/05/31 00:46:34;;;;;;;;;;;22.10;51.50;;;;;;6342116;28;20495;-66
2021/05/31 00:49:38;;;;;;;0.50;0.45;;;22.00;51.40;;;;;;6341569;28;19904;-67
2021/05/31 00:52:39;;;;;;;0.73;0.45;;;22.00;52.10;;;;;;6341325;28;20036;-67
2021/05/31 00:55:40;;;;;;;0.80;0.40;;;22.00;51.40;;;;;;6341570;28;20068;-66
2021/05/31 00:58:40;;;;;;;0.50;0.40;;;22.00;51.40;;;;;;6341413;28;20072;-66
2021/05/31 01:01:41;;;;;;;0.70;0.47;;;22.00;51.40;;;;;;6341744;28;20156;-67
2021/05/31 01:04:42;;;;;;;1.13;0.50;;;22.00;51.40;;;;;;6341168;28;20110;-67
2021/05/31 01:07:46;;;;;;;0.70;0.47;;;22.00;51.40;;;;;;6341091;28;20102;-67
2021/05/31 01:10:59;;;;;;;0.50;0.40;;;22.00;51.40;;;;;;6341070;28;20076;-67
2021/05/31 01:14:09;;;;;;;1.00;0.50;;;22.00;51.40;;;;;;6321003;28;20500;-67
2021/05/31 01:17:15;;;;;;;0.40;0.40;;;22.00;51.40;;;;;;6320896;28;20019;-66
2021/05/31 01:20:24;;;;;;;1.30;0.40;;;22.00;51.40;;;;;;6341203;28;20430;-67
2021/05/31 01:23:29;;;;;;;0.40;0.40;;;22.00;51.40;;;;;;6340720;28;20043;-67
2021/05/31 01:26:43;;;;;;;1.02;0.50;;;22.00;51.30;;;;;;6341161;28;20484;-67
2021/05/31 01:29:53;;;;;;;0.93;0.50;;;22.00;51.40;;;;;;6340700;28;20024;-66
2021/05/31 01:32:55;;;;;;;0.50;0.30;;;22.00;51.40;;;;;;6340887;28;20508;-66
2021/05/31 01:35:59;;;;;;;0.90;0.50;;;22.00;51.40;;;;;;6340480;28;20110;-66
2021/05/31 01:39:01;;;;;;;0.30;0.30;;;22.00;51.40;;;;;;6341006;28;20019;-66
2021/05/31 01:42:02;;;;;;;0.50;0.30;;;22.00;51.40;;;;;;6340474;28;20076;-67
2021/05/31 01:45:04;;;;;;;0.65;0.50;;;22.00;51.40;;;;;;6340743;28;20031;-67
2021/05/31 01:48:06;;;;;;;0.30;0.30;;;22.00;51.30;;;;;;6331807;28;20057;-66
2021/05/31 01:51:08;;;;;;;0.55;0.50;;;22.00;51.30;;;;;;6313686;28;20519;-66
2021/05/31 01:54:10;;;;;;;0.43;0.32;;;22.00;51.30;;;;;;6315641;28;20220;-66
2021/05/31 01:57:11;;;;;;;0.55;0.47;;;22.00;51.30;;;;;;6320275;28;20038;-67
2021/05/31 02:00:14;;;;;;;0.40;0.30;;;22.00;51.30;;;;;;6345771;28;20019;-67
2021/05/31 02:03:15;;;;;;;0.50;0.40;;;22.00;51.30;;;;;;6337729;28;20072;-67
2021/05/31 02:06:15;;;;;;;0.50;0.40;;;22.00;51.30;;;;;;6320185;28;20028;-67
2021/05/31 02:09:16;;;;;;;0.82;0.40;;;22.00;51.30;;;;;;6319857;28;20025;-67
2021/05/31 02:12:21;;;;;;;1.05;0.50;;;22.00;51.30;;;;;;6320580;28;20045;-67
2021/05/31 02:15:40;;;;;;;0.30;0.30;;;22.00;51.30;;;;;;6319712;28;20024;-66
2021/05/31 02:18:46;;;;;;;0.28;0.28;;;22.00;51.30;;;;;;6328903;28;20034;-66
2021/05/31 02:21:50;;;;;;;0.52;0.32;;;22.00;51.30;;;;;;6344767;28;20023;-66
2021/05/31 02:24:54;;;;;;;0.40;0.40;;;22.00;51.30;;;;;;6345181;28;20027;-66
2021/05/31 02:27:58;;;;;;;0.52;0.32;;;22.00;51.30;;;;;;6343765;28;20031;-66
2021/05/31 02:31:02;;;;;;;0.55;0.50;;;22.00;51.30;;;;;;6319559;28;20050;-67
2021/05/31 02:34:03;;;;;;;0.20;0.20;;;22.00;51.30;;;;;;6319439;28;20031;-66
2021/05/31 02:37:04;;;;;;;1.23;0.40;;;22.00;51.30;;;;;;6319432;28;20398;-67
2021/05/31 02:40:05;;;;;;;0.30;0.30;;;22.00;51.30;;;;;;6317540;28;20099;-67
2021/05/31 02:43:09;;;;;;;0.82;0.40;;;22.00;51.20;;;;;;6319222;28;20032;-66
2021/05/31 02:46:10;;;;;;;0.50;0.30;;;22.00;51.20;;;;;;6318191;28;20021;-66
2021/05/31 02:49:10;;;;;;;0.70;0.38;;;22.00;51.20;;;;;;6317595;28;20024;-66
2021/05/31 02:52:11;;;;;;;0.40;0.40;;;22.00;51.20;;;;;;6319045;28;20505;-66
2021/05/31 02:55:15;;;;;;;1.10;0.50;;;22.00;51.20;;;;;;6318935;28;20673;-67
2021/05/31 02:58:15;;;;;;;0.50;0.50;;;22.00;51.20;;;;;;6319151;28;20020;-67
2021/05/31 03:01:16;;;;;;;0.30;0.30;;;22.00;51.20;;;;;;6318890;28;20069;-67
2021/05/31 03:04:17;;;;;;;0.40;0.40;;;22.00;51.20;;;;;;6340443;28;20028;-67
2021/05/31 03:07:17;;;;;;;0.63;0.47;;;22.00;51.20;;;;;;6343052;28;20051;-67
2021/05/31 03:10:18;;;;;;;0.40;0.40;;;22.00;51.20;;;;;;6343833;28;20043;-67
2021/05/31 03:13:18;;;;;;;0.30;0.20;;;22.00;51.20;;;;;;6344002;28;20028;-67
2021/05/31 03:16:19;;;;;;;0.30;0.30;;;22.00;51.20;;;;;;6343734;28;20031;-67
2021/05/31 03:19:19;;;;;;;0.50;0.45;;;22.00;51.20;;;;;;6343990;28;20166;-67
2021/05/31 03:22:20;;;;;;;0.30;0.30;;;22.00;51.20;;;;;;6344215;28;20023;-67
2021/05/31 03:25:21;;;;;;;0.40;0.40;;;22.00;51.20;;;;;;6343785;28;20208;-67
2021/05/31 03:28:22;;;;;;;0.40;0.40;;;22.00;51.20;;;;;;6343494;28;20148;-67
2021/05/31 03:31:22;;;;;;;0.52;0.47;;;22.00;51.20;;;;;;6343448;28;20028;-67
2021/05/31 03:34:23;;;;;;;0.30;0.30;;;22.00;51.20;;;;;;6341277;28;20058;-67
2021/05/31 03:37:24;;;;;;;1.48;0.40;;;22.00;51.20;;;;;;6318225;28;20358;-67
2021/05/31 03:40:25;;;;;;;0.30;0.30;;;22.00;51.20;;;;;;6318073;28;20469;-67
2021/05/31 03:43:26;;;;;;;0.75;0.30;;;22.00;51.20;;;;;;6318289;28;20028;-67
2021/05/31 03:46:27;;;;;;;0.43;0.40;;;22.00;51.20;;;;;;6318044;28;20077;-66
2021/05/31 03:49:27;;;;;;;0.52;0.45;;;22.00;51.20;;;;;;6317688;28;20451;-66
2021/05/31 03:52:28;;;;;;;0.40;0.40;;;22.00;51.20;;;;;;6317604;28;20075;-67
2021/05/31 03:55:29;;;;;;;0.60;0.50;;;22.00;51.20;;;;;;6317709;28;20294;-67
2021/05/31 03:58:29;;;;;;;0.50;0.40;;;22.00;51.20;;;;;;6317758;28;20432;-67
2021/05/31 04:01:31;;;;;;;0.95;0.40;;;22.00;51.20;;;;;;6317243;28;20499;-66
2021/05/31 04:04:40;;;;;;;0.45;0.20;;;22.00;51.20;;;;;;6317409;28;20552;-66
2021/05/31 04:14:22;;;;;;;0.85;0.55;;;22.00;51.10;;;;;;6342506;28;20032;-67
2021/05/31 04:17:22;;;;;;;0.40;0.40;;;22.00;51.10;;;;;;6342312;28;20019;-67
2021/05/31 04:20:23;;;;;;;0.35;0.30;;;22.00;51.20;;;;;;6343249;28;20020;-67
2021/05/31 04:23:23;;;;;;;0.73;0.40;;;22.00;51.20;;;;;;6342505;28;20051;-67
2021/05/31 04:26:25;;;;;;;0.30;0.30;;;22.00;51.20;;;;;;6342187;28;20059;-67
2021/05/31 04:29:25;;;;;;;0.50;0.38;;;22.00;51.10;;;;;;6342233;27;20024;-67
2021/05/31 04:32:26;;;;;;;0.40;0.40;;;22.00;51.00;;;;;;6343450;28;20092;-67
2021/05/31 04:35:29;;;;;;;0.47;0.40;;;22.00;51.10;;;;;;6344083;28;20024;-67
2021/05/31 04:38:30;;;;;;;0.52;0.32;;;22.00;51.20;;;;;;6344638;28;20020;-67
2021/05/31 04:41:33;;;;;;;1.45;0.60;;;22.00;51.20;;;;;;6342179;28;20350;-67
2021/05/31 04:44:34;;;;;;;0.73;0.40;;;22.00;51.20;;;;;;6343310;28;20050;-67
2021/05/31 04:47:35;;;;;;;0.45;0.40;;;22.00;51.10;;;;;;6322975;28;20027;-67
2021/05/31 04:50:36;;;;;;;0.45;0.38;;;22.00;51.20;;;;;;6315046;28;20020;-67
2021/05/31 04:53:37;;;;;;;0.45;0.40;;;22.00;51.20;;;;;;6291462;28;20044;-67
2021/05/31 04:56:39;;;;;;;0.40;0.40;;;22.00;51.10;;;;;;6290421;28;20174;-67
2021/05/31 04:59:40;;;;;;;1.02;0.52;;;22.00;51.10;;;;;;6291797;28;20075;-67
2021/05/31 05:02:40;;;;;;;0.50;0.30;;;22.00;51.10;;;;;;6325506;28;20495;-67
2021/05/31 05:05:41;;;;;;;0.43;0.40;;;22.00;51.10;;;;;;6341864;28;20162;-67
2021/05/31 05:08:42;;;;;;;0.50;0.50;;;22.00;51.10;;;;;;6291840;28;20028;-67
2021/05/31 05:11:42;;;;;;;0.40;0.40;;;22.00;51.10;;;;;;6291017;28;20457;-67
2021/05/31 05:14:43;;;;;;;0.68;0.50;;;22.00;51.10;;;;;;6290256;28;20033;-70
2021/05/31 05:17:45;;;;;;;16.95;0.70;;;22.00;51.10;;;;;;6299147;28;20470;-72
2021/05/31 05:20:46;;;;;;;3.90;0.52;;;22.00;51.30;;;;;;6311498;28;20349;-64
2021/05/31 05:23:47;;;;;;;4.55;1.50;;;22.00;51.40;;;;;;6315093;28;20020;-63
2021/05/31 05:26:48;;;;;;;4.97;1.40;;;22.00;48.40;;;;;;6316845;28;20491;-63
2021/05/31 05:29:48;;;;;;;2.30;1.33;;;22.00;48.20;;;;;;6337463;28;20174;-63
2021/05/31 05:32:51;;;;;;;7.03;1.08;;;22.00;48.90;;;;;;6329888;28;20459;-64
2021/05/31 05:35:55;;;;;;;6.10;1.13;;;22.00;49.10;;;;;;6315241;28;20388;-64
2021/05/31 05:45:36;;;;;;;6.45;1.80;;;22.10;50.30;;;;;;6324912;28;20085;-67
2021/05/31 05:48:37;;;;;;;4.88;1.98;;;22.10;49.70;;;;;;6318507;28;20255;-70
2021/05/31 05:51:38;;;;;;;6.57;2.28;;;22.00;49.70;;;;;;6314636;28;20044;-67
2021/05/31 05:54:39;;;;;;;14.93;2.38;;;22.00;46.80;;;;;;6338025;28;20445;-64
2021/05/31 05:57:42;;;;;;;5.05;1.88;;;21.90;46.80;;;;;;6329099;28;20371;-63
2021/05/31 06:00:43;;;;;;;4.82;2.03;;;22.00;47.30;;;;;;6311934;28;20021;-65
2021/05/31 06:03:51;;;;;;;4.10;1.65;;;22.00;47.00;;;;;;6316438;28;20220;-64
2021/05/31 06:06:51;;;;;;;7.55;2.13;;;22.00;47.00;;;;;;6315912;28;20153;-64
2021/05/31 06:09:52;;;;;;;9.75;1.77;;;22.00;47.70;;;;;;6316273;28;20032;-63
2021/05/31 06:12:53;;;;;;;5.90;1.90;;;22.00;48.10;;;;;;6311290;28;20034;-63
2021/05/31 06:15:54;;;;;;;5.03;1.67;;;22.00;48.20;;;;;;6318832;28;20024;-64
2021/05/31 06:18:55;;;;;;;5.00;1.52;;;22.00;48.20;;;;;;6327802;28;20089;-64
2021/05/31 06:21:55;;;;;;;4.85;1.52;;;22.00;48.20;;;;;;6333805;28;20032;-64
2021/05/31 06:24:56;;;;;;;4.75;1.30;;;22.00;48.40;;;;;;6340299;28;20715;-64
2021/05/31 06:27:58;;;;;;;7.07;1.75;;;22.00;48.80;;;;;;6340882;28;20227;-65
2021/05/31 06:30:59;;;;;;;4.28;1.60;;;22.00;48.80;;;;;;6341058;28;20020;-64
2021/05/31 06:34:00;;;;;;;6.78;1.42;;;22.00;49.10;;;;;;6336244;28;20031;-64
2021/05/31 06:37:00;;;;;;;3.13;1.60;;;22.00;49.10;;;;;;6341574;28;20024;-64
2021/05/31 06:40:04;;;;;;;3.40;1.30;;;22.00;49.30;;;;;;6322214;28;20028;-65
2021/05/31 06:43:04;;;;;;;11.82;1.30;;;22.00;50.20;;;;;;6337475;28;20032;-65
2021/05/31 06:46:05;;;;;;;3.25;1.70;;;22.10;49.30;;;;;;6343662;28;20066;-65
2021/05/31 06:49:08;;;;;;;3.42;1.50;;;22.10;48.90;;;;;;6326795;28;20063;-64
2021/05/31 06:53:26;;;;;;;4.25;1.35;;;22.10;49.40;;;;;;6305268;28;20055;-65
2021/05/31 06:56:27;;;;;;;3.08;1.25;;;22.10;49.60;;;;;;6304634;28;20060;-65
2021/05/31 06:59:28;;;;;;;2.05;1.25;;;22.10;49.70;;;;;;6334974;28;20216;-65
2021/05/31 07:02:33;;;;;;;5.15;0.98;;;22.10;49.70;;;;;;6344254;28;20174;-65
2021/05/31 07:05:33;;;;;;;2.20;1.15;;;22.10;49.70;;;;;;6325634;28;20220;-65
2021/05/31 07:08:34;;;;;;;1.50;0.90;;;22.10;49.80;;;;;;6343695;28;20026;-65
2021/05/31 07:11:38;;;;;;;1.42;0.80;;;22.10;50.10;;;;;;6342918;28;20034;-65
2021/05/31 07:14:41;;;;;;;8.20;1.88;;;22.10;50.20;;;;;;6324540;28;20038;-65
2021/05/31 07:17:42;;;;;;;4.10;1.27;;;22.10;50.20;;;;;;6324516;28;20023;-65
2021/05/31 07:20:44;;;;;;;6.85;1.40;;;22.10;50.20;;;;;;6345694;27;20103;-65
2021/05/31 07:23:48;;;;;;;5.13;1.10;;;22.10;50.20;;;;;;6325166;28;20031;-65
2021/05/31 07:26:50;;;;;;;3.00;1.00;;;22.10;50.20;;;;;;6343480;28;20024;-65
2021/05/31 07:29:51;;;;;;;5.70;1.38;;;22.10;50.30;;;;;;6365781;27;20580;-65
2021/05/31 07:32:53;;;;;;;3.72;1.25;;;22.10;50.30;;;;;;6367510;27;20031;-65
2021/05/31 07:35:54;;;;;;;4.18;1.10;;;22.10;50.30;;;;;;6323506;27;20507;-65
2021/05/31 07:38:56;;;;;;;1.83;1.00;;;22.10;50.40;;;;;;6345065;27;20038;-64
2021/05/31 07:41:57;;;;;;;3.47;1.30;;;22.10;50.40;;;;;;6344441;27;20027;-65
2021/05/31 07:44:57;;;;;;;3.40;1.27;;;22.10;50.40;;;;;;6322972;27;20070;-65
2021/05/31 07:47:58;;;;;;;3.35;1.55;;;22.10;50.50;;;;;;6351865;27;20023;-65
2021/05/31 07:51:15;;;;;;;4.43;1.83;;;22.10;50.50;;;;;;6346737;27;20062;-64
2021/05/31 07:54:17;;;;;;;3.47;1.40;;;22.10;50.60;;;;;;6340945;28;20046;-65
2021/05/31 07:57:18;;;;;;;6.90;1.83;;;22.10;50.70;;;;;;6341812;28;20023;-64
2021/05/31 08:00:20;;;;;;;5.63;2.10;;;22.10;50.70;;;;;;6341804;28;20027;-64
2021/05/31 08:03:20;;;;;;;3.92;1.63;;;22.10;50.70;;;;;;6323968;28;20047;-64
2021/05/31 08:06:21;;;;;;;4.10;1.52;;;22.10;50.70;;;;;;6341427;27;20050;-65
2021/05/31 08:09:21;;;;;;;4.30;2.00;;;22.10;50.70;;;;;;6323492;28;20469;-65
2021/05/31 08:12:22;;;;;;;5.85;1.95;;;22.10;50.80;;;;;;6341654;27;20035;-64
2021/05/31 08:15:23;;;;;;;5.40;1.85;;;22.10;50.70;;;;;;6343351;27;20031;-65
2021/05/31 08:18:23;;;;;;;4.82;1.95;;;22.10;50.80;;;;;;6339654;27;20432;-65
2021/05/31 08:21:24;;;;;;;4.25;1.85;;;22.10;50.80;;;;;;6323668;28;20023;-65
2021/05/31 08:24:27;;;;;;;5.28;2.40;;;22.10;50.80;;;;;;6342027;28;20031;-65
2021/05/31 08:27:27;;;;;;;5.88;2.33;;;22.10;50.80;;;;;;6341457;28;20393;-64
2021/05/31 08:30:28;;;;;;;4.18;2.05;;;22.10;50.90;;;;;;6341969;28;20070;-65
2021/05/31 08:33:28;;;;;;;4.88;1.92;;;22.00;50.80;;;;;;6342427;28;20081;-65
2021/05/31 08:36:29;;;;;;;8.45;2.40;;;22.10;50.90;;;;;;6329137;27;20030;-65
2021/05/31 08:39:30;;;;;;;5.82;2.45;;;22.10;50.90;;;;;;6360508;27;20055;-65
2021/05/31 08:42:35;;;;;;;4.72;2.20;;;22.10;50.90;;;;;;6348223;27;20032;-63
2021/05/31 08:45:38;;;;;;;9.73;2.60;;;22.10;50.90;;;;;;6347503;27;20036;-71
2021/05/31 08:48:40;;;;;;;5.97;2.25;;;22.10;51.00;;;;;;6343976;28;20063;-72
2021/05/31 08:51:40;;;;;;;8.38;2.72;;;22.10;51.00;;;;;;6324709;28;20023;-68
2021/05/31 08:54:41;;;;;;;10.77;2.80;;;22.00;50.70;;;;;;6324264;28;20515;-69
2021/05/31 08:57:42;;;;;;;6.60;2.50;;;22.00;48.30;;;;;;6341799;28;20023;-66
2021/05/31 09:00:44;;;;;;;12.00;2.75;;;22.10;49.20;;;;;;6341790;28;20023;-66
2021/05/31 09:03:45;;;;;;;8.18;2.72;;;22.10;48.20;;;;;;6341873;28;20024;-66
2021/05/31 09:06:56;;;;;;;6.38;2.17;;;22.10;49.10;;;;;;6323551;28;20449;-66
2021/05/31 09:09:57;;;;;;;5.60;2.30;;;22.10;49.30;;;;;;6340985;27;20041;-67
2021/05/31 09:12:59;;;;;;;4.03;2.00;;;22.10;49.40;;;;;;6346504;27;20030;-66
2021/05/31 09:16:17;;;;;;;5.93;2.30;;;22.10;49.70;;;;;;6342704;28;20440;-65
2021/05/31 09:19:17;;;;;;;4.68;2.35;;;22.10;49.80;;;;;;6317520;28;20341;-66
2021/05/31 09:22:19;;;;;;;5.28;1.83;;;22.20;49.90;;;;;;6332506;28;20028;-66
2021/05/31 09:25:31;;;;;;;3.72;1.67;;;22.20;50.00;;;;;;6342521;28;20055;-66
2021/05/31 09:28:32;;;;;;;3.17;1.63;;;22.10;50.10;;;;;;6341136;28;20039;-66
2021/05/31 09:31:33;;;;;;;4.60;1.98;;;22.10;50.00;;;;;;6341880;28;20032;-66
2021/05/31 09:34:34;;;;;;;3.83;1.90;;;22.20;50.30;;;;;;6342050;28;20077;-66
2021/05/31 09:37:49;;;;;;;4.60;1.90;;;22.20;50.30;;;;;;6341669;28;20094;-67
2021/05/31 09:40:55;;;;;;;3.50;1.70;;;22.20;50.20;;;;;;6341265;28;20058;-65
2021/05/31 09:44:02;;;;;;;4.20;1.63;;;22.20;50.20;;;;;;6323566;28;20043;-65
2021/05/31 09:47:03;;;;;;;3.58;1.73;;;22.20;50.30;;;;;;6342076;28;20097;-65
2021/05/31 09:50:05;;;;;;;3.42;1.83;;;22.20;51.00;;;;;;6329855;28;20024;-69
2021/05/31 09:53:14;;;;;;;4.47;2.30;;;22.20;50.30;;;;;;6326529;28;20528;-65
2021/05/31 09:56:17;;;;;;;5.65;2.45;;;22.20;50.40;;;;;;6330995;28;20071;-65
2021/05/31 09:59:19;;;;;;;4.90;2.55;;;22.20;50.30;;;;;;6341635;28;20020;-66
2021/05/31 10:03:17;;;;;;;5.22;2.58;;;22.20;50.30;;;;;;6341145;28;20512;-66
2021/05/31 10:08:57;;;;;;;6.78;3.17;;;22.20;50.30;;;;;;6341656;28;20396;-66
2021/05/31 10:12:00;;;;;;;9.52;4.07;;;22.20;50.40;;;;;;6349478;28;20028;-66
2021/05/31 10:15:01;;;;;;;7.60;3.58;;;22.20;50.40;;;;;;6342071;28;20051;-66
2021/05/31 10:18:07;;;;;;;10.55;4.07;;;22.20;50.40;;;;;;6330116;28;20632;-66
2021/05/31 10:21:12;;;;;;;17.35;7.30;;;22.20;50.40;;;;;;6328604;28;20055;-66
2021/05/31 10:24:12;;;;;;;11.68;4.80;;;22.20;50.30;;;;;;6346530;28;20510;-66
2021/05/31 10:27:17;;;;;;;20.00;7.63;;;22.20;50.40;;;;;;6340219;28;20055;-66
2021/05/31 10:30:21;;;;;;;19.85;8.10;;;22.20;50.40;;;;;;6345272;28;20030;-67
2021/05/31 10:33:24;;;;;;;18.75;7.68;;;22.20;50.40;;;;;;6326860;28;20016;-66
2021/05/31 10:36:32;;;;;;;20.40;7.70;;;22.20;50.40;;;;;;6344866;28;20020;-66
2021/05/31 10:39:34;;;;;;;28.63;9.32;;;22.20;50.50;;;;;;6347356;28;20028;-66
2021/05/31 10:42:47;;;;;;;20.23;7.55;;;22.20;50.50;;;;;;6345413;28;20027;-66
2021/05/31 10:45:51;;;;;;;22.50;8.20;;;22.20;50.50;;;;;;6342431;28;20062;-66
2021/05/31 10:48:53;;;;;;;26.73;9.98;;;22.20;50.50;;;;;;6326207;28;20035;-66
2021/05/31 10:51:54;;;;;;;21.92;8.30;;;22.20;50.50;;;;;;6319348;27;20523;-66
2021/05/31 10:55:06;;;;;;;25.77;9.38;;;22.20;50.50;;;;;;6362687;27;20035;-66
2021/05/31 10:58:16;;;;;;;17.92;7.45;;;22.20;50.50;;;;;;6353165;27;20477;-66
2021/05/31 11:01:25;;;;;;;19.00;7.82;;;22.20;50.60;;;;;;6326143;28;20024;-66
2021/05/31 11:04:26;;;;;;;22.13;8.52;;;22.20;50.50;;;;;;6364845;27;20113;-66
2021/05/31 11:07:27;;;;;;;21.58;8.10;;;22.20;51.30;;;;;;6344203;28;20024;-66
2021/05/31 11:10:30;;;;;;;16.73;6.75;;;22.20;50.60;;;;;;6344959;28;20406;-68
2021/05/31 11:13:31;;;;;;;17.02;7.35;;;22.20;50.60;;;;;;6325766;28;20020;-69
2021/05/31 11:16:36;;;;;;;20.13;7.32;;;22.20;50.60;;;;;;6345143;27;20533;-69
2021/05/31 11:19:40;;;;;;;17.10;7.68;;;22.20;49.40;;;;;;6344142;28;20020;-66
2021/05/31 11:22:54;;;;;;;21.00;7.18;;;22.20;50.10;;;;;;6343252;28;20030;-67
2021/05/31 11:25:57;;;;;;;15.85;6.22;;;22.20;50.00;;;;;;6324831;28;20080;-66
2021/05/31 11:28:58;;;;;;;16.20;6.60;;;22.20;50.30;;;;;;6341264;28;20019;-65
2021/05/31 11:31:58;;;;;;;10.25;5.03;;;22.20;50.20;;;;;;6343538;28;20077;-68
2021/05/31 11:35:01;;;;;;;13.18;5.15;;;22.20;50.40;;;;;;6325705;28;20027;-68
2021/05/31 11:38:02;;;;;;;14.32;5.68;;;22.20;50.40;;;;;;6323909;28;20032;-66
2021/05/31 11:41:08;;;;;;;13.98;5.50;;;22.20;50.30;;;;;;6345568;28;20019;-65
2021/05/31 11:44:15;;;;;;;12.85;5.07;;;22.20;50.00;;;;;;6343107;28;20233;-66
2021/05/31 11:47:21;;;;;;;14.82;5.20;;;22.20;50.10;;;;;;6342358;28;20111;-66
2021/05/31 11:50:23;;;;;;;11.93;4.40;;;22.20;50.10;;;;;;6342210;28;20024;-66
2021/05/31 11:53:23;;;;;;;12.13;4.63;;;22.20;50.10;;;;;;6341818;28;20157;-66
2021/05/31 11:56:32;;;;;;;13.13;4.68;;;22.20;50.10;;;;;;6342478;28;20438;-67
2021/05/31 11:59:34;;;;;;;10.38;4.70;;;22.20;49.80;;;;;;6324417;28;20515;-66
2021/05/31 12:02:38;;;;;;;9.57;3.95;;;22.20;50.00;;;;;;6341972;28;20015;-66
2021/05/31 12:05:39;;;;;;;10.57;4.15;;;22.20;50.20;;;;;;6343491;28;20369;-66
2021/05/31 12:08:41;;;;;;;9.70;4.45;;;22.20;50.30;;;;;;6344412;28;20038;-66
2021/05/31 12:11:42;;;;;;;12.90;4.38;;;22.20;50.30;;;;;;6317725;28;20127;-66
2021/05/31 12:14:46;;;;;;;7.80;3.83;;;22.20;50.30;;;;;;6337586;27;20456;-66
2021/05/31 12:17:47;;;;;;;10.15;4.07;;;22.20;50.30;;;;;;6367618;27;20201;-65
2021/05/31 12:20:54;;;;;;;8.73;3.47;;;22.20;50.40;;;;;;6341802;28;20019;-66
2021/05/31 12:23:57;;;;;;;9.77;4.05;;;22.20;50.40;;;;;;6341313;28;20023;-66
2021/05/31 12:26:59;;;;;;;7.70;3.53;;;22.20;50.40;;;;;;6340714;28;20032;-66
2021/05/31 12:30:00;;;;;;;8.13;3.65;;;22.20;50.40;;;;;;6339789;28;20081;-67
2021/05/31 12:33:12;;;;;;;7.03;3.28;;;22.10;50.30;;;;;;6341907;28;20070;-65
2021/05/31 12:36:12;;;;;;;6.70;3.20;;;22.10;50.40;;;;;;6340841;28;20020;-72
2021/05/31 12:39:13;;;;;;;11.70;3.60;;;22.20;50.40;;;;;;6322084;28;20503;-66
2021/05/31 12:42:20;;;;;;;8.82;3.70;;;22.10;50.40;;;;;;6323604;28;20137;-65
2021/05/31 12:45:21;;;;;;;9.15;3.72;;;22.10;50.50;;;;;;6341065;28;20027;-66
2021/05/31 12:48:22;;;;;;;10.18;3.90;;;22.10;50.40;;;;;;6322421;28;20032;-66
2021/05/31 12:51:22;;;;;;;11.73;4.30;;;22.20;50.50;;;;;;6340819;28;20593;-66
2021/05/31 12:54:23;;;;;;;15.45;4.80;;;22.10;50.50;;;;;;6330801;28;20051;-66
2021/05/31 12:57:24;;;;;;;10.57;4.13;;;22.20;50.50;;;;;;6340222;28;20464;-66
2021/05/31 13:00:27;;;;;;;17.20;5.47;;;22.10;50.40;;;;;;6340524;28;20035;-66
2021/05/31 13:03:32;;;;;;;16.63;5.35;;;22.10;50.50;;;;;;6341312;28;20046;-66
2021/05/31 13:06:37;;;;;;;13.00;4.63;;;22.10;50.50;;;;;;6345520;27;20083;-69
2021/05/31 13:09:38;;;;;;;15.18;4.90;;;22.10;50.60;;;;;;6351809;27;20024;-69
2021/05/31 13:12:57;;;;;;;17.63;5.68;;;22.10;50.50;;;;;;6333993;28;20545;-67
2021/05/31 13:15:59;;;;;;;21.30;6.18;;;22.10;50.60;;;;;;6339704;28;20023;-71
2021/05/31 13:19:00;;;;;;;13.93;5.75;;;22.10;50.50;;;;;;6323891;28;20480;-68
2021/05/31 13:22:06;;;;;;;16.23;6.75;;;22.10;50.60;;;;;;6303759;28;20455;-67
2021/05/31 13:25:16;;;;;;;21.63;7.00;;;22.10;50.50;;;;;;6341737;28;20031;-67
2021/05/31 13:28:29;;;;;;;15.75;7.18;;;22.10;50.50;;;;;;6321397;28;20031;-66
2021/05/31 13:31:31;;;;;;;17.75;6.45;;;22.10;50.40;;;;;;6341464;28;20028;-66
2021/05/31 13:34:35;;;;;;;17.77;7.50;;;22.10;50.30;;;;;;6341638;28;20023;-66
2021/05/31 13:37:47;;;;;;;19.10;7.53;;;22.10;50.40;;;;;;6321874;28;20024;-66
2021/05/31 13:40:49;;;;;;;15.45;5.97;;;22.10;50.30;;;;;;6339652;28;20059;-67
2021/05/31 13:43:53;;;;;;;15.55;5.80;;;22.10;50.20;;;;;;6340941;28;20027;-66
2021/05/31 13:46:54;;;;;;;17.08;6.05;;;22.10;50.20;;;;;;6340674;28;20378;-66
2021/05/31 13:49:55;;;;;;;16.30;5.85;;;22.10;50.20;;;;;;6330697;28;20046;-66
2021/05/31 13:52:56;;;;;;;18.05;5.72;;;22.10;50.10;;;;;;6339049;28;20043;-66
2021/05/31 13:55:57;;;;;;;16.35;6.07;;;22.10;50.20;;;;;;6345764;28;20106;-67
2021/05/31 13:58:58;;;;;;;15.18;5.78;;;22.10;50.10;;;;;;6327461;28;20369;-66
2021/05/31 14:01:58;;;;;;;17.20;6.32;;;22.10;50.20;;;;;;6345416;28;20027;-66
2021/05/31 14:04:59;;;;;;;14.65;5.60;;;22.10;50.10;;;;;;6346195;28;20032;-66
2021/05/31 14:08:04;;;;;;;18.35;6.80;;;22.10;50.10;;;;;;6325528;28;20114;-66
2021/05/31 14:11:06;;;;;;;23.42;7.60;;;22.10;50.10;;;;;;6327921;28;20104;-67
2021/05/31 14:14:07;;;;;;;20.60;7.25;;;22.10;50.10;;;;;;6346570;28;20030;-66
2021/05/31 14:17:08;;;;;;;18.20;7.30;;;22.10;50.10;;;;;;6344912;28;20032;-66
2021/05/31 14:20:10;;;;;;;17.50;7.13;;;22.10;50.10;;;;;;6326240;28;20543;-66
2021/05/31 14:23:10;;;;;;;22.08;8.77;;;22.10;50.10;;;;;;6346056;28;20048;-66
2021/05/31 14:26:11;;;;;;;21.80;8.73;;;22.10;50.10;;;;;;6344791;28;20020;-66
2021/05/31 14:29:11;;;;;;;26.33;9.25;;;22.10;50.20;;;;;;6344588;28;20083;-66
2021/05/31 14:32:13;;;;;;;27.08;9.23;;;22.10;50.20;;;;;;6324917;28;20059;-67
2021/05/31 14:35:13;;;;;;;29.17;10.05;;;22.10;50.20;;;;;;6342477;28;20507;-67
2021/05/31 14:38:14;;;;;;;35.13;12.57;;;22.10;50.10;;;;;;6343250;28;20050;-66
2021/05/31 14:41:15;;;;;;;25.88;9.80;;;22.20;49.80;;;;;;6340708;28;20539;-66
2021/05/31 14:44:16;;;;;;;30.50;9.93;;;22.20;50.00;;;;;;6324653;28;20054;-66
2021/05/31 14:47:17;;;;;;;26.50;9.95;;;22.20;50.20;;;;;;6342413;28;20024;-67
2021/05/31 14:50:18;;;;;;;25.13;9.85;;;22.20;50.20;;;;;;6334007;28;20530;-64
2021/05/31 14:53:19;;;;;;;26.08;9.35;;;22.10;50.20;;;;;;6343571;28;20035;-64
2021/05/31 14:56:20;;;;;;;23.85;8.93;;;22.10;50.20;;;;;;6341298;28;20047;-64
2021/05/31 14:59:20;;;;;;;28.25;9.63;;;22.10;50.20;;;;;;6342901;28;20019;-64
2021/05/31 15:02:21;;;;;;;23.50;10.07;;;22.10;50.20;;;;;;6321369;28;20057;-64
2021/05/31 15:05:23;;;;;;;25.15;10.15;;;22.10;50.30;;;;;;6341023;28;20110;-66
2021/05/31 15:08:24;;;;;;;25.40;9.65;;;22.10;50.30;;;;;;6340221;27;20085;-66
2021/05/31 15:11:25;;;;;;;28.90;10.45;;;22.10;50.30;;;;;;6343205;28;20092;-67
2021/05/31 15:14:25;;;;;;;22.17;9.85;;;22.10;50.30;;;;;;6343374;28;20047;-66
2021/05/31 15:17:27;;;;;;;23.65;10.35;;;22.10;50.30;;;;;;6342318;28;20016;-67
2021/05/31 15:20:28;;;;;;;23.67;10.20;;;22.10;50.40;;;;;;6342981;28;20055;-68
2021/05/31 15:23:28;;;;;;;25.92;9.82;;;22.10;50.40;;;;;;6342751;28;20047;-68
2021/05/31 15:26:29;;;;;;;22.20;9.32;;;22.10;50.40;;;;;;6323808;28;20477;-72
2021/05/31 15:29:29;;;;;;;21.77;9.57;;;22.10;50.30;;;;;;6342879;28;20036;-69
2021/05/31 15:32:30;;;;;;;25.02;9.70;;;22.10;50.30;;;;;;6357903;27;20105;-67
2021/05/31 15:35:31;;;;;;;23.10;9.48;;;22.10;50.40;;;;;;6341958;28;20042;-68
2021/05/31 15:38:31;;;;;;;24.85;9.27;;;22.10;50.20;;;;;;6340757;28;20039;-67
2021/05/31 15:41:32;;;;;;;18.23;8.38;;;22.10;50.20;;;;;;6343177;28;20078;-67
2021/05/31 15:44:33;;;;;;;23.45;8.63;;;22.10;50.20;;;;;;6340911;28;20068;-67
2021/05/31 15:47:34;;;;;;;20.88;7.47;;;22.10;50.10;;;;;;6340782;28;20027;-68
2021/05/31 15:50:38;;;;;;;18.10;8.00;;;22.10;50.10;;;;;;6334679;28;20047;-68
2021/05/31 15:53:40;;;;;;;19.85;8.00;;;22.10;50.00;;;;;;6327187;28;20111;-67
2021/05/31 15:56:41;;;;;;;18.75;7.40;;;22.10;50.00;;;;;;6336663;28;20128;-69
2021/05/31 15:59:43;;;;;;;17.90;7.40;;;22.10;49.90;;;;;;6343748;28;20088;-67
2021/05/31 16:02:44;;;;;;;15.18;6.72;;;22.10;49.90;;;;;;6342591;28;20081;-67